Time;durP1;ratioP1;P1;durP2;ratioP2;P2;SDS_P1;SDS_P2;PMS_P1;PMS_P2;Temp;Humidity;BMP_temperature;BMP_pressure;BME280_temperature;BME280_humidity;BME280_pressure;Samples;Min_cycle;Max_cycle;Signal;HPM_P1;HPM_P2
2023/08/27 00:00:28;;;;;;;;;2.50;2.50;;;;;20.66;60.21;100674.06;5074498;28;45504;-64
2023/08/27 00:02:53;;;;;;;;;2.00;2.00;;;;;20.64;60.14;100673.34;5059803;28;46341;-64
2023/08/27 00:05:19;;;;;;;;;1.00;1.00;;;;;20.63;60.71;100671.63;5060560;28;45334;-64
2023/08/27 00:07:44;;;;;;;;;2.00;1.50;;;;;20.65;60.45;100668.78;5060549;28;45755;-64
2023/08/27 00:10:10;;;;;;;;;2.00;1.50;;;;;20.59;60.66;100669.22;5059367;28;45588;-64
2023/08/27 00:12:35;;;;;;;;;1.75;1.50;;;;;20.59;60.58;100669.22;5059807;28;46056;-64
2023/08/27 00:15:00;;;;;;;;;0.00;0.00;;;;;20.57;60.72;100665.75;5060706;28;45409;-64
2023/08/27 00:17:26;;;;;;;;;1.25;1.25;;;;;20.56;60.52;100654.03;5060971;28;45473;-64
2023/08/27 00:19:51;;;;;;;;;1.00;1.00;;;;;20.59;60.53;100656.50;5059706;28;45523;-64
2023/08/27 00:22:17;;;;;;;;;2.00;2.00;;;;;20.59;61.01;100661.09;5058864;28;45437;-64
2023/08/27 00:24:42;;;;;;;;;1.00;1.00;;;;;20.59;60.77;100664.66;5060475;28;46522;-63
2023/08/27 00:27:07;;;;;;;;;1.25;1.25;;;;;20.56;61.29;100664.88;5060745;28;45560;-63
2023/08/27 00:29:33;;;;;;;;;1.50;0.75;;;;;20.60;60.98;100669.09;5060770;28;45367;-64
2023/08/27 00:31:58;;;;;;;;;2.25;1.00;;;;;20.58;60.89;100660.22;5060705;28;46534;-64
2023/08/27 00:34:32;;;;;;;;;2.00;1.00;;;;;20.58;61.08;100657.50;5060476;28;45346;-64
2023/08/27 00:36:58;;;;;;;;;1.00;1.00;;;;;20.56;61.32;100656.75;5060099;28;45502;-64
2023/08/27 00:39:24;;;;;;;;;1.00;1.00;;;;;20.57;61.39;100665.75;5073689;28;45378;-64
2023/08/27 00:41:49;;;;;;;;;0.50;0.50;;;;;20.47;61.32;100643.91;5066473;28;56954;-64
2023/08/27 00:44:14;;;;;;;;;2.00;1.00;;;;;20.53;61.70;100659.69;5060502;28;45376;-64
2023/08/27 00:46:40;;;;;;;;;1.00;1.00;;;;;20.50;61.65;100658.09;5060728;28;45373;-64
2023/08/27 00:49:05;;;;;;;;;1.00;1.00;;;;;20.46;61.66;100653.84;5060214;28;45587;-64
2023/08/27 00:51:32;;;;;;;;;2.00;0.00;;;;;20.47;61.58;100655.59;5060308;28;45487;-64
2023/08/27 00:53:58;;;;;;;;;0.25;0.25;;;;;20.49;61.79;100663.63;5059772;28;45495;-64
2023/08/27 00:56:24;;;;;;;;;0.75;0.50;;;;;20.42;61.65;100648.81;5060462;28;45440;-64
2023/08/27 00:58:50;;;;;;;;;0.50;0.50;;;;;20.48;61.28;100665.47;5060370;28;45397;-64
2023/08/27 01:01:16;;;;;;;;;0.00;0.00;;;;;20.44;61.51;100666.66;5055373;28;46281;-64
2023/08/27 01:03:43;;;;;;;;;0.00;0.00;;;;;20.45;61.20;100676.53;5057232;28;45366;-64
2023/08/27 01:06:08;;;;;;;;;1.00;1.00;;;;;20.40;60.91;100661.59;5060274;28;45322;-64
2023/08/27 01:08:56;;;;;;;;;1.00;1.00;;;;;20.37;61.36;100668.13;5064056;28;45507;-64
2023/08/27 01:12:04;;;;;;;;;0.00;0.00;;;;;20.33;61.23;100667.50;5057093;28;46801;-63
2023/08/27 01:14:33;;;;;;;;;1.00;1.00;;;;;20.30;61.09;100661.44;5055892;28;45443;-64
2023/08/27 01:17:02;;;;;;;;;0.50;0.50;;;;;20.27;61.02;100659.81;5046815;28;45567;-64
2023/08/27 01:19:29;;;;;;;;;0.00;0.00;;;;;20.23;61.02;100660.13;5067560;28;45401;-63
2023/08/27 01:21:54;;;;;;;;;0.00;0.00;;;;;20.22;61.55;100664.69;5058907;28;45381;-64
2023/08/27 01:24:19;;;;;;;;;0.00;0.00;;;;;20.20;61.12;100669.38;5058837;28;49424;-64
2023/08/27 01:26:58;;;;;;;;;1.00;1.00;;;;;20.17;61.31;100669.59;5059129;28;45387;-63
2023/08/27 01:29:33;;;;;;;;;0.00;0.00;;;;;20.15;61.68;100666.16;5053549;28;45654;-64
2023/08/27 01:32:10;;;;;;;;;0.00;0.00;;;;;20.13;61.58;100659.94;5057979;28;45556;-64
2023/08/27 01:34:36;;;;;;;;;1.00;0.25;;;;;20.08;61.54;100649.47;5060206;28;45534;-64
2023/08/27 01:37:03;;;;;;;;;0.00;0.00;;;;;20.06;61.61;100654.13;5059041;28;45709;-64
2023/08/27 01:39:29;;;;;;;;;0.00;0.00;;;;;20.07;61.15;100652.31;5059444;28;45592;-64
2023/08/27 01:41:54;;;;;;;;;0.00;0.00;;;;;20.04;61.81;100647.09;5055784;28;46805;-64
2023/08/27 01:44:20;;;;;;;;;1.00;1.00;;;;;19.98;62.01;100645.72;5063641;28;45397;-64
2023/08/27 01:46:45;;;;;;;;;1.00;1.00;;;;;19.97;61.95;100657.53;5059752;28;45297;-64
2023/08/27 01:49:10;;;;;;;;;1.00;1.00;;;;;19.98;62.35;100652.00;5059216;28;45354;-64
2023/08/27 01:51:36;;;;;;;;;0.25;0.25;;;;;19.93;62.26;100648.75;5059516;28;45385;-64
2023/08/27 01:54:01;;;;;;;;;0.00;0.00;;;;;19.91;62.17;100650.72;5059140;28;45450;-64
2023/08/27 01:56:26;;;;;;;;;0.50;0.50;;;;;19.94;62.51;100653.19;5057499;28;45418;-64
2023/08/27 01:58:52;;;;;;;;;0.00;0.00;;;;;19.93;62.53;100646.06;5060050;28;58955;-64
2023/08/27 02:01:17;;;;;;;;;0.50;0.50;;;;;19.90;62.66;100643.56;5066834;28;48174;-64
2023/08/27 02:03:43;;;;;;;;;1.00;0.00;;;;;19.88;62.45;100644.63;5061348;27;45456;-64
2023/08/27 02:06:08;;;;;;;;;0.00;0.00;;;;;19.89;62.48;100649.94;5059341;28;45354;-64
2023/08/27 02:08:33;;;;;;;;;0.00;0.00;;;;;19.86;62.42;100646.59;5059066;28;45386;-64
2023/08/27 02:10:59;;;;;;;;;0.00;0.00;;;;;19.88;62.61;100655.47;5060311;28;46056;-64
2023/08/27 02:13:24;;;;;;;;;1.00;1.00;;;;;19.84;62.35;100653.97;5058817;28;45278;-64
2023/08/27 02:15:49;;;;;;;;;1.50;0.00;;;;;19.81;62.55;100652.34;5057427;28;45589;-64
2023/08/27 02:18:15;;;;;;;;;0.00;0.00;;;;;19.75;62.47;100647.41;5054462;28;45370;-64
2023/08/27 02:20:42;;;;;;;;;1.00;0.00;;;;;19.75;62.59;100650.09;5069916;28;45393;-64
2023/08/27 02:23:08;;;;;;;;;1.00;0.00;;;;;19.76;62.59;100658.13;5061161;27;45616;-64
2023/08/27 02:25:34;;;;;;;;;0.00;0.00;;;;;19.71;62.70;100653.97;5058972;28;45368;-64
2023/08/27 02:27:59;;;;;;;;;0.00;0.00;;;;;19.70;62.57;100663.06;5058967;28;45489;-63
2023/08/27 02:30:24;;;;;;;;;0.00;0.00;;;;;19.72;63.01;100661.13;5058490;28;57075;-64
2023/08/27 02:32:49;;;;;;;;;0.50;0.00;;;;;19.69;62.30;100655.91;5058429;28;51839;-64
2023/08/27 02:35:15;;;;;;;;;1.00;1.00;;;;;19.65;62.62;100652.56;5060417;28;45842;-64
2023/08/27 02:37:40;;;;;;;;;1.00;1.00;;;;;19.65;62.78;100652.56;5060723;28;59235;-64
2023/08/27 02:40:06;;;;;;;;;1.00;0.50;;;;;19.68;62.50;100646.06;5061944;28;60309;-64
2023/08/27 02:42:31;;;;;;;;;0.00;0.00;;;;;19.66;62.69;100648.00;5060726;28;45261;-64
2023/08/27 02:44:57;;;;;;;;;0.00;0.00;;;;;19.67;62.73;100647.91;5062621;28;45726;-64
2023/08/27 02:47:22;;;;;;;;;0.75;0.75;;;;;19.65;62.60;100649.88;5061703;28;57571;-64
2023/08/27 02:49:47;;;;;;;;;0.75;0.75;;;;;19.65;62.72;100647.16;5060499;28;45377;-64
2023/08/27 02:52:12;;;;;;;;;0.00;0.00;;;;;19.68;62.68;100656.88;5061137;28;45440;-64
2023/08/27 02:54:38;;;;;;;;;1.00;1.00;;;;;19.66;62.75;100656.13;5063234;28;53944;-64
2023/08/27 02:57:03;;;;;;;;;0.50;0.50;;;;;19.63;62.80;100658.09;5061240;28;45490;-64
2023/08/27 02:59:28;;;;;;;;;0.00;0.00;;;;;19.60;62.99;100652.03;5056053;27;45416;-64
2023/08/27 03:01:54;;;;;;;;;0.50;0.50;;;;;19.58;62.92;100659.41;5054998;28;45588;-64
2023/08/27 03:04:19;;;;;;;;;2.00;0.00;;;;;19.53;63.09;100657.03;5064023;27;45400;-64
2023/08/27 03:06:45;;;;;;;;;1.25;1.00;;;;;19.55;62.93;100654.22;5061279;28;59854;-64
2023/08/27 03:09:10;;;;;;;;;2.00;0.75;;;;;19.53;63.13;100650.72;5060956;28;46883;-64
2023/08/27 03:11:36;;;;;;;;;0.50;0.50;;;;;19.53;63.07;100659.72;5053057;28;45408;-64
2023/08/27 03:14:01;;;;;;;;;0.50;0.50;;;;;19.49;63.08;100657.34;5052913;28;45310;-64
2023/08/27 03:16:27;;;;;;;;;0.50;0.50;;;;;19.48;62.88;100653.78;5041578;28;45315;-64
2023/08/27 03:18:52;;;;;;;;;1.00;1.00;;;;;19.44;63.02;100655.84;5047868;28;45423;-63
2023/08/27 03:21:17;;;;;;;;;0.50;0.50;;;;;19.42;63.10;100655.06;5048017;28;45386;-64
2023/08/27 03:23:43;;;;;;;;;2.00;1.25;;;;;19.39;63.24;100657.97;5061197;28;54498;-64
2023/08/27 03:26:08;;;;;;;;;2.00;0.00;;;;;19.35;62.77;100652.91;5060566;28;45329;-64
2023/08/27 03:28:33;;;;;;;;;1.00;1.00;;;;;19.36;62.79;100660.03;5061758;28;45462;-64
2023/08/27 03:31:02;;;;;;;;;1.00;1.00;;;;;19.40;62.83;100672.41;5090853;27;45472;-64
2023/08/27 03:33:31;;;;;;;;;1.00;1.00;;;;;19.37;62.98;100673.47;5061610;28;45305;-64
2023/08/27 03:35:57;;;;;;;;;4.00;1.50;;;;;19.38;62.88;100675.22;5061512;28;45572;-64
2023/08/27 03:38:23;;;;;;;;;1.00;1.00;;;;;19.35;62.77;100680.00;5061512;28;46366;-63
2023/08/27 03:40:50;;;;;;;;;1.50;1.00;;;;;19.31;62.98;100673.03;5061025;28;45423;-64
2023/08/27 03:43:15;;;;;;;;;0.75;0.75;;;;;19.33;62.86;100676.50;5060240;28;45536;-63
2023/08/27 03:45:40;;;;;;;;;1.00;1.00;;;;;19.30;62.94;100676.75;5061210;28;45324;-64
2023/08/27 03:48:06;;;;;;;;;1.75;1.00;;;;;19.29;62.99;100672.28;5061157;28;45542;-63
2023/08/27 03:50:31;;;;;;;;;1.75;0.00;;;;;19.27;63.31;100675.09;5061197;28;45286;-64
2023/08/27 03:52:57;;;;;;;;;0.00;0.00;;;;;19.28;63.12;100678.66;5061512;28;45278;-64
2023/08/27 03:55:22;;;;;;;;;0.25;0.25;;;;;19.23;63.24;100677.16;5061013;28;45390;-64
2023/08/27 03:57:48;;;;;;;;;1.00;1.00;;;;;19.22;63.27;100683.53;5063081;28;45372;-63
2023/08/27 04:00:13;;;;;;;;;1.25;1.00;;;;;19.22;63.26;100691.66;5063428;28;45417;-64
2023/08/27 04:02:39;;;;;;;;;1.00;1.00;;;;;19.16;63.51;100683.97;5058565;28;45342;-64
2023/08/27 04:05:05;;;;;;;;;2.00;0.75;;;;;19.20;63.45;100687.34;5059954;28;45405;-64
2023/08/27 04:07:30;;;;;;;;;3.00;1.00;;;;;19.16;63.72;100683.97;5061032;28;45560;-64
2023/08/27 04:09:56;;;;;;;;;3.00;1.25;;;;;19.14;63.71;100691.31;5067371;28;45420;-64
2023/08/27 04:12:21;;;;;;;;;1.00;0.00;;;;;19.10;63.43;100681.69;5059908;28;54830;-64
2023/08/27 04:14:46;;;;;;;;;1.00;1.00;;;;;19.10;63.62;100687.09;5074973;28;45542;-64
2023/08/27 04:17:11;;;;;;;;;0.50;0.25;;;;;19.12;63.58;100693.25;5059400;28;61167;-64
2023/08/27 04:19:37;;;;;;;;;0.50;0.50;;;;;19.07;63.40;100692.72;5060736;28;45880;-64
2023/08/27 04:22:03;;;;;;;;;1.25;0.00;;;;;19.07;63.70;100693.56;5061086;28;45534;-64
2023/08/27 04:24:28;;;;;;;;;0.50;0.00;;;;;19.03;63.64;100688.50;5062308;28;45365;-63
2023/08/27 04:26:54;;;;;;;;;1.75;0.50;;;;;19.01;63.71;100688.59;5060484;28;45830;-64
2023/08/27 04:29:21;;;;;;;;;0.75;0.00;;;;;19.00;63.73;100697.69;5060874;28;45473;-63
2023/08/27 04:31:46;;;;;;;;;1.00;0.75;;;;;18.94;63.59;100694.53;5060651;28;45473;-64
2023/08/27 04:34:12;;;;;;;;;2.75;0.50;;;;;18.92;63.79;100699.19;5060051;28;45321;-64
2023/08/27 04:36:37;;;;;;;;;2.00;0.75;;;;;18.88;64.24;100712.06;5070072;28;46234;-64
2023/08/27 04:39:02;;;;;;;;;1.25;1.25;;;;;18.84;64.13;100692.47;5064037;28;54525;-63
2023/08/27 04:41:28;;;;;;;;;0.75;0.75;;;;;18.84;64.29;100703.28;5059815;28;45376;-63
2023/08/27 04:43:53;;;;;;;;;0.75;0.75;;;;;18.84;64.20;100697.88;5060430;28;45556;-63
2023/08/27 04:46:18;;;;;;;;;1.00;0.25;;;;;18.83;64.26;100703.38;5060514;28;47046;-64
2023/08/27 04:48:44;;;;;;;;;0.75;0.75;;;;;18.83;63.94;100714.19;5062871;28;45293;-64
2023/08/27 04:51:09;;;;;;;;;1.75;0.00;;;;;18.81;64.19;100711.56;5067147;28;45489;-64
2023/08/27 04:53:35;;;;;;;;;0.00;0.00;;;;;18.82;64.19;100709.72;5060214;28;45403;-64
2023/08/27 04:56:00;;;;;;;;;1.75;0.75;;;;;18.82;64.23;100723.25;5060149;28;45527;-64
2023/08/27 04:58:25;;;;;;;;;0.75;0.75;;;;;18.78;64.32;100713.63;5059568;28;45384;-64
2023/08/27 05:00:53;;;;;;;;;1.75;0.75;;;;;18.79;64.43;100721.59;5059077;28;45400;-64
2023/08/27 05:03:18;;;;;;;;;0.75;0.75;;;;;18.82;64.37;100717.84;5054126;28;45327;-64
2023/08/27 05:05:44;;;;;;;;;2.00;0.75;;;;;18.80;64.54;100719.78;5060146;28;47271;-63
2023/08/27 05:08:09;;;;;;;;;0.00;0.00;;;;;18.81;64.58;100721.50;5058830;28;48988;-64
2023/08/27 05:10:34;;;;;;;;;0.75;0.75;;;;;18.78;64.17;100719.88;5060453;28;45332;-64
2023/08/27 05:12:59;;;;;;;;;0.75;0.75;;;;;18.77;64.78;100720.84;5048799;28;45459;-64
2023/08/27 05:15:25;;;;;;;;;1.75;0.75;;;;;18.75;64.43;100724.63;5059675;28;52269;-64
2023/08/27 05:17:50;;;;;;;;;1.00;1.00;;;;;18.74;64.62;100723.75;5059636;28;45269;-63
2023/08/27 05:20:16;;;;;;;;;0.75;0.75;;;;;18.71;64.65;100726.69;5057436;28;45481;-64
2023/08/27 05:22:41;;;;;;;;;0.75;0.00;;;;;18.70;64.75;100722.22;5071883;28;45552;-64
2023/08/27 05:25:07;;;;;;;;;1.00;1.00;;;;;18.64;65.01;100718.13;5059821;28;45336;-64
2023/08/27 05:27:32;;;;;;;;;0.50;0.50;;;;;18.68;64.65;100722.34;5052989;28;45638;-63
2023/08/27 05:29:58;;;;;;;;;1.75;0.75;;;;;18.70;65.21;100733.03;5059768;28;48599;-64
2023/08/27 05:32:24;;;;;;;;;1.00;1.00;;;;;18.64;65.14;100725.34;5057956;28;45534;-64
2023/08/27 05:34:49;;;;;;;;;0.75;0.75;;;;;18.64;64.72;100726.22;5058855;28;46697;-63
2023/08/27 05:37:15;;;;;;;;;0.50;0.50;;;;;18.67;64.93;100727.84;5058768;28;45409;-64
2023/08/27 05:39:40;;;;;;;;;0.00;0.00;;;;;18.63;64.78;100724.47;5067411;28;46386;-64
2023/08/27 05:42:06;;;;;;;;;4.25;1.00;;;;;18.65;65.18;100725.22;5061010;28;54248;-63
2023/08/27 05:44:31;;;;;;;;;0.75;0.00;;;;;18.59;64.91;100727.47;5059322;28;45413;-64
2023/08/27 05:46:56;;;;;;;;;0.75;0.75;;;;;18.65;65.30;100737.91;5059384;28;46659;-64
2023/08/27 05:49:22;;;;;;;;;0.75;0.75;;;;;18.62;65.04;100735.38;5059377;28;48080;-63
2023/08/27 05:51:47;;;;;;;;;1.75;1.75;;;;;18.60;65.13;100734.63;5059260;28;45559;-64
2023/08/27 05:54:12;;;;;;;;;1.00;0.50;;;;;18.54;65.00;100729.63;5059102;28;46330;-64
2023/08/27 05:56:37;;;;;;;;;4.25;1.00;;;;;18.54;65.31;100741.28;5057323;28;45385;-63
2023/08/27 05:59:03;;;;;;;;;1.75;1.00;;;;;18.48;65.79;100741.72;5059010;28;45355;-64
2023/08/27 06:01:28;;;;;;;;;1.25;1.25;;;;;18.52;65.33;100744.09;5055370;28;45314;-64
2023/08/27 06:03:54;;;;;;;;;1.25;0.75;;;;;18.51;65.81;100738.81;5058848;27;46092;-64
2023/08/27 06:06:20;;;;;;;;;1.50;0.75;;;;;18.54;65.46;100748.53;5059251;28;45355;-63
2023/08/27 06:08:45;;;;;;;;;1.00;1.00;;;;;18.56;65.23;100746.59;5058134;28;45605;-64
2023/08/27 06:11:11;;;;;;;;;3.25;2.00;;;;;18.53;65.60;100736.88;5059178;28;45322;-63
2023/08/27 06:13:36;;;;;;;;;1.25;0.25;;;;;18.52;65.24;100740.53;5059116;28;45586;-64
2023/08/27 06:16:01;;;;;;;;;1.00;1.00;;;;;18.55;65.62;100744.88;5048408;28;45419;-64
2023/08/27 06:18:27;;;;;;;;;0.25;0.00;;;;;18.52;65.38;100748.63;5055766;28;45670;-63
2023/08/27 06:20:52;;;;;;;;;0.50;0.50;;;;;18.53;65.59;100758.50;5057110;28;52923;-64
2023/08/27 06:23:18;;;;;;;;;0.25;0.25;;;;;18.50;65.80;100748.75;5053936;28;56298;-64
2023/08/27 06:25:43;;;;;;;;;1.50;0.50;;;;;18.52;65.60;100752.19;5058316;28;45590;-64
2023/08/27 06:28:10;;;;;;;;;0.50;0.50;;;;;18.55;65.99;100755.69;5058629;28;45232;-63
2023/08/27 06:30:40;;;;;;;;;0.00;0.00;;;;;18.51;65.48;100763.13;5056229;28;45610;-70
2023/08/27 06:33:06;;;;;;;;;0.50;0.50;;;;;18.48;65.87;100764.19;5055369;28;46409;-70
2023/08/27 06:35:32;;;;;;;;;0.50;0.50;;;;;18.47;65.79;100759.75;5058810;28;45393;-70
2023/08/27 06:37:57;;;;;;;;;0.50;0.50;;;;;18.38;66.13;100743.28;5058866;28;45309;-70
2023/08/27 06:40:22;;;;;;;;;0.25;0.25;;;;;18.48;66.00;100766.91;5057692;28;45464;-71
2023/08/27 06:42:48;;;;;;;;;4.25;0.75;;;;;18.50;66.11;100759.56;5046658;28;46036;-71
2023/08/27 06:45:13;;;;;;;;;0.25;0.25;;;;;18.41;66.21;100749.34;5060334;28;45476;-71
2023/08/27 06:47:38;;;;;;;;;2.50;0.50;;;;;18.55;65.88;100774.63;5058106;28;45357;-71
2023/08/27 06:50:04;;;;;;;;;1.25;0.25;;;;;18.55;65.71;100763.81;5058220;28;45377;-71
2023/08/27 06:52:31;;;;;;;;;1.25;1.25;;;;;18.54;65.97;100765.63;5058587;28;45401;-71
2023/08/27 06:54:58;;;;;;;;;1.00;1.00;;;;;18.57;65.74;100775.38;5059294;28;45756;-71
2023/08/27 06:57:23;;;;;;;;;1.75;1.00;;;;;18.56;65.76;100768.22;5058304;28;45489;-71
2023/08/27 06:59:48;;;;;;;;;0.25;0.25;;;;;18.55;65.67;100766.50;5063421;28;54981;-71
2023/08/27 07:02:14;;;;;;;;;1.00;1.00;;;;;18.55;65.42;100766.50;5060770;28;63713;-72
2023/08/27 07:04:39;;;;;;;;;2.75;1.00;;;;;18.60;65.84;100770.63;5067604;28;45635;-71
2023/08/27 07:07:04;;;;;;;;;0.00;0.00;;;;;18.65;65.88;100779.31;5054718;27;47299;-71
2023/08/27 07:09:30;;;;;;;;;1.75;0.75;;;;;18.67;65.79;100782.75;5066553;28;45335;-71
2023/08/27 07:11:55;;;;;;;;;1.50;0.75;;;;;18.68;65.35;100789.06;5054579;27;48009;-70
2023/08/27 07:14:20;;;;;;;;;1.75;0.75;;;;;18.62;65.52;100767.84;5056574;28;45378;-70
2023/08/27 07:16:46;;;;;;;;;0.75;0.75;;;;;18.67;65.76;100787.31;5056394;28;49552;-70
2023/08/27 07:19:11;;;;;;;;;2.00;0.75;;;;;18.68;65.58;100789.91;5055718;28;45359;-70
2023/08/27 07:21:36;;;;;;;;;0.25;0.25;;;;;18.74;65.37;100804.00;5059331;28;45507;-70
2023/08/27 07:24:02;;;;;;;;;0.75;0.75;;;;;18.76;65.46;100802.94;5061377;28;45444;-70
2023/08/27 07:26:29;;;;;;;;;1.00;0.75;;;;;18.71;65.42;100791.56;5061128;28;47109;-71
2023/08/27 07:28:56;;;;;;;;;1.00;0.75;;;;;18.78;65.84;100797.44;5062436;28;45538;-71
2023/08/27 07:31:21;;;;;;;;;0.25;0.25;;;;;18.79;65.28;100804.56;5061580;28;45969;-70
2023/08/27 07:33:46;;;;;;;;;0.75;0.75;;;;;18.81;65.31;100799.91;5061160;28;45383;-70
2023/08/27 07:36:12;;;;;;;;;2.25;0.75;;;;;18.81;65.97;100794.50;5060277;28;45554;-70
2023/08/27 07:38:41;;;;;;;;;2.50;0.75;;;;;18.83;65.52;100787.22;5058106;28;45586;-70
2023/08/27 07:41:11;;;;;;;;;0.00;0.00;;;;;18.88;65.41;100794.03;5059230;28;47123;-70
2023/08/27 07:43:37;;;;;;;;;1.75;1.50;;;;;18.89;66.04;100794.91;5046874;28;45509;-71
2023/08/27 07:46:03;;;;;;;;;0.75;0.75;;;;;18.88;65.88;100790.47;5061518;28;45549;-70
2023/08/27 07:48:29;;;;;;;;;0.75;0.75;;;;;18.90;65.33;100784.97;5063946;28;45487;-70
2023/08/27 07:50:54;;;;;;;;;1.00;1.00;;;;;18.95;65.80;100791.81;5052955;28;46389;-71
2023/08/27 07:53:19;;;;;;;;;1.00;1.00;;;;;18.89;65.81;100775.97;5061056;28;45428;-70
2023/08/27 07:55:45;;;;;;;;;2.00;1.00;;;;;18.95;65.45;100788.25;5061278;28;45908;-71
2023/08/27 07:58:10;;;;;;;;;0.00;0.00;;;;;19.01;65.36;100790.50;5061036;28;45502;-71
2023/08/27 08:00:36;;;;;;;;;0.50;0.50;;;;;19.03;65.15;100788.59;5061132;28;45975;-71
2023/08/27 08:03:01;;;;;;;;;1.00;1.00;;;;;19.05;65.70;100792.06;5060595;28;45670;-71
2023/08/27 08:05:26;;;;;;;;;2.00;1.50;;;;;19.08;65.58;100791.84;5076857;28;45263;-70
2023/08/27 08:07:52;;;;;;;;;2.25;0.00;;;;;19.12;65.54;100797.91;5065016;28;53049;-70
2023/08/27 08:10:17;;;;;;;;;1.50;1.00;;;;;19.10;65.11;100795.31;5052506;27;46154;-70
2023/08/27 08:12:43;;;;;;;;;0.75;0.75;;;;;19.15;65.04;100790.47;5057672;28;45470;-70
2023/08/27 08:15:09;;;;;;;;;0.25;0.25;;;;;19.21;65.10;100790.06;5049755;28;45513;-70
2023/08/27 08:17:35;;;;;;;;;1.00;1.00;;;;;19.24;65.29;100788.97;5058794;28;45488;-63
2023/08/27 08:20:00;;;;;;;;;1.00;1.00;;;;;19.28;64.80;100784.19;5060855;28;45576;-63
2023/08/27 08:22:26;;;;;;;;;0.00;0.00;;;;;19.30;64.70;100788.56;5059977;28;45495;-63
2023/08/27 08:24:51;;;;;;;;;0.75;0.75;;;;;19.29;65.39;100775.13;5060484;28;45294;-63
2023/08/27 08:27:17;;;;;;;;;3.00;0.75;;;;;19.36;64.49;100781.84;5060307;28;45287;-63
2023/08/27 08:29:43;;;;;;;;;0.50;0.50;;;;;19.36;64.39;100780.03;5058771;28;45420;-63
2023/08/27 08:32:08;;;;;;;;;3.00;1.00;;;;;19.38;64.37;100760.97;5058458;28;45358;-67
2023/08/27 08:34:33;;;;;;;;;1.25;0.00;;;;;19.45;64.31;100770.41;5063369;28;45393;-66
2023/08/27 08:37:00;;;;;;;;;0.75;0.75;;;;;19.44;63.98;100765.94;5071263;28;45642;-67
2023/08/27 08:39:25;;;;;;;;;0.75;0.75;;;;;19.50;64.31;100770.09;5059453;28;45447;-67
2023/08/27 08:42:06;;;;;;;;;0.00;0.00;;;;;19.53;64.26;100772.53;5065883;28;45924;-67
2023/08/27 08:45:07;;;;;;;;;0.50;0.50;;;;;19.55;64.16;100774.19;5060721;28;45331;-67
2023/08/27 08:47:35;;;;;;;;;0.00;0.00;;;;;19.51;64.06;100769.97;5059118;28;45450;-69
2023/08/27 08:50:05;;;;;;;;;0.00;0.00;;;;;19.56;63.47;100777.75;5053845;28;45506;-67
2023/08/27 08:52:39;;;;;;;;;0.00;0.00;;;;;19.55;63.39;100776.03;5059120;27;45424;-67
2023/08/27 08:55:09;;;;;;;;;1.50;1.00;;;;;19.60;63.44;100780.16;5060371;28;45546;-67
2023/08/27 08:57:45;;;;;;;;;0.00;0.00;;;;;19.65;63.26;100776.28;5063369;28;45448;-67
2023/08/27 09:00:11;;;;;;;;;2.00;2.00;;;;;19.63;63.47;100776.38;5068345;27;45614;-67
2023/08/27 09:02:38;;;;;;;;;0.25;0.25;;;;;19.72;63.70;100778.41;5061235;28;45745;-66
2023/08/27 09:05:05;;;;;;;;;2.00;1.75;;;;;19.78;63.49;100778.03;5062872;27;45396;-67
2023/08/27 09:07:32;;;;;;;;;1.00;0.50;;;;;19.79;63.13;100776.19;5061442;27;45335;-67
2023/08/27 09:10:00;;;;;;;;;2.00;0.00;;;;;19.85;62.95;100774.91;5054767;28;45419;-66
2023/08/27 09:12:27;;;;;;;;;0.50;0.00;;;;;19.91;62.55;100777.16;5056907;28;45515;-66
2023/08/27 09:14:53;;;;;;;;;1.00;0.00;;;;;19.94;62.67;100780.50;5053317;28;45833;-67
2023/08/27 09:17:19;;;;;;;;;1.00;1.00;;;;;19.95;62.48;100775.97;5063823;28;45630;-67
2023/08/27 09:19:46;;;;;;;;;0.25;0.00;;;;;20.00;62.55;100781.94;5052006;28;45509;-67
2023/08/27 09:22:13;;;;;;;;;0.00;0.00;;;;;20.02;61.89;100781.81;5054513;28;45403;-67
2023/08/27 09:24:40;;;;;;;;;0.50;0.50;;;;;20.03;62.33;100787.13;5059071;28;45402;-67
2023/08/27 09:27:06;;;;;;;;;0.50;0.50;;;;;20.05;62.21;100787.03;5059709;28;45536;-67
2023/08/27 09:29:33;;;;;;;;;0.00;0.00;;;;;20.07;61.91;100796.75;5046467;28;45298;-67
2023/08/27 09:31:58;;;;;;;;;1.25;0.25;;;;;20.06;61.64;100795.00;5059790;28;45303;-68
2023/08/27 09:34:24;;;;;;;;;0.50;0.50;;;;;20.11;61.64;100797.41;5058544;28;45471;-68
2023/08/27 09:36:49;;;;;;;;;0.25;0.25;;;;;20.12;61.93;100800.00;5059789;28;45346;-68
2023/08/27 09:39:15;;;;;;;;;3.50;1.00;;;;;20.15;61.51;100804.34;5056939;28;45964;-68
2023/08/27 09:41:42;;;;;;;;;0.75;0.00;;;;;20.13;61.41;100804.47;5062018;28;45583;-68
2023/08/27 09:44:08;;;;;;;;;2.00;2.00;;;;;20.15;61.23;100807.91;5066109;27;45327;-68
2023/08/27 09:46:34;;;;;;;;;0.75;0.50;;;;;20.15;61.59;100805.22;5063126;28;47072;-68
2023/08/27 09:49:05;;;;;;;;;2.00;0.00;;;;;20.23;61.08;100799.25;5056733;28;47615;-68
2023/08/27 09:51:38;;;;;;;;;0.50;0.50;;;;;20.28;60.89;100801.59;5051752;28;45557;-68
2023/08/27 09:54:20;;;;;;;;;2.75;0.75;;;;;20.28;61.09;100810.63;5058493;28;45399;-67
2023/08/27 09:56:47;;;;;;;;;0.00;0.00;;;;;20.31;60.75;100805.00;5059391;28;45578;-69
2023/08/27 09:59:17;;;;;;;;;0.00;0.00;;;;;20.33;60.77;100802.13;5056147;28;46710;-69
2023/08/27 10:01:50;;;;;;;;;1.00;1.00;;;;;20.37;61.00;100806.38;5059032;28;45507;-70
2023/08/27 10:04:17;;;;;;;;;59.75;35.50;;;;;20.42;60.13;100806.06;5057469;28;46040;-68
2023/08/27 10:06:43;;;;;;;;;63.50;29.00;;;;;20.44;60.11;100807.66;5064093;28;45318;-69
2023/08/27 10:09:08;;;;;;;;;36.50;18.50;;;;;20.45;59.90;100806.69;5058910;28;45390;-69
2023/08/27 10:11:35;;;;;;;;;2.50;2.50;;;;;20.53;60.12;100812.41;5047927;28;47047;-70
2023/08/27 10:14:03;;;;;;;;;1.00;1.00;;;;;20.55;60.14;100821.31;5059157;28;45370;-70
2023/08/27 10:16:30;;;;;;;;;4.25;3.00;;;;;20.59;59.22;100821.06;5050554;28;45382;-69
2023/08/27 10:18:56;;;;;;;;;2.00;1.00;;;;;20.59;58.75;100818.38;5052013;28;45813;-69
2023/08/27 10:21:22;;;;;;;;;0.25;0.25;;;;;20.51;59.30;100816.19;5054758;28;45448;-68
2023/08/27 10:23:48;;;;;;;;;3.50;1.75;;;;;20.53;59.84;100823.25;5055399;28;45457;-70
2023/08/27 10:26:14;;;;;;;;;0.00;0.00;;;;;20.53;59.74;100825.09;5054623;28;45884;-70
2023/08/27 10:28:40;;;;;;;;;0.00;0.00;;;;;20.53;59.58;100819.66;5054893;28;45814;-70
2023/08/27 10:31:06;;;;;;;;;1.25;0.00;;;;;20.56;58.57;100822.16;5053170;28;45833;-71
2023/08/27 10:33:32;;;;;;;;;1.00;1.00;;;;;20.58;58.69;100831.06;5056055;28;45708;-70
2023/08/27 10:36:05;;;;;;;;;1.00;1.00;;;;;20.58;58.42;100814.78;5063337;27;47009;-70
2023/08/27 10:38:33;;;;;;;;;0.00;0.00;;;;;20.65;58.67;100823.38;5054494;28;46416;-70
2023/08/27 10:40:59;;;;;;;;;0.00;0.00;;;;;20.67;58.52;100833.13;5052943;28;46455;-70
2023/08/27 10:43:32;;;;;;;;;0.00;0.00;;;;;20.70;57.84;100838.31;5054524;28;45518;-70
2023/08/27 10:46:13;;;;;;;;;1.00;1.00;;;;;20.75;58.05;100826.25;5052687;28;45796;-70
2023/08/27 10:48:39;;;;;;;;;0.00;0.00;;;;;20.69;57.92;100808.59;5053927;28;45573;-72
2023/08/27 10:51:12;;;;;;;;;1.00;1.00;;;;;20.81;58.00;100820.38;5049330;28;46194;-70
2023/08/27 10:53:49;;;;;;;;;1.75;1.00;;;;;20.87;57.85;100826.22;5067240;27;45528;-67
2023/08/27 10:56:33;;;;;;;;;0.00;0.00;;;;;20.90;57.65;100822.44;5052235;28;45783;-71
2023/08/27 10:59:03;;;;;;;;;0.00;0.00;;;;;20.91;57.94;100826.84;5042417;28;46850;-71
2023/08/27 11:01:34;;;;;;;;;2.00;1.00;;;;;20.95;57.51;100819.34;5057124;28;45557;-70
2023/08/27 11:04:01;;;;;;;;;0.00;0.00;;;;;20.97;56.72;100817.41;5050551;27;45488;-74
2023/08/27 11:06:43;;;;;;;;;0.50;0.00;;;;;20.96;56.19;100816.53;5058421;28;45476;-73
2023/08/27 11:09:27;;;;;;;;;0.50;0.50;;;;;20.96;55.97;100818.38;5062041;28;46847;-73
2023/08/27 11:11:55;;;;;;;;;0.00;0.00;;;;;20.93;55.33;100816.75;5057955;28;45723;-72
2023/08/27 11:14:22;;;;;;;;;0.00;0.00;;;;;20.92;56.14;100809.59;5051797;28;45707;-72
2023/08/27 11:17:03;;;;;;;;;0.00;0.00;;;;;20.94;55.07;100807.63;5062819;27;45741;-73
2023/08/27 11:19:34;;;;;;;;;0.00;0.00;;;;;20.98;54.73;100803.72;5055779;28;46176;-73
2023/08/27 11:22:11;;;;;;;;;0.00;0.00;;;;;20.97;54.26;100790.28;5075564;27;46041;-72